sensor_id;sensor_type;location;lat;lon;timestamp;pressure;altitude;pressure_sealevel;temperature;humidity
23679;BME280;12016;51.668;6.874;2022-10-16T00:04:51;100940.69;;;16.21;100.00
23679;BME280;12016;51.668;6.874;2022-10-16T00:10:58;100937.53;;;16.15;100.00
23679;BME280;12016;51.668;6.874;2022-10-16T00:17:00;100942.41;;;16.08;100.00
23679;BME280;12016;51.668;6.874;2022-10-16T00:23:03;100931.88;;;16.22;100.00
23679;BME280;12016;51.668;6.874;2022-10-16T00:29:06;100925.81;;;16.31;100.00
23679;BME280;12016;51.668;6.874;2022-10-16T00:35:08;100935.78;;;16.32;100.00
23679;BME280;12016;51.668;6.874;2022-10-16T00:41:13;100943.16;;;16.12;100.00
23679;BME280;12016;51.668;6.874;2022-10-16T00:47:39;100935.94;;;16.14;100.00
23679;BME280;12016;51.668;6.874;2022-10-16T00:53:40;100941.97;;;16.13;100.00
23679;BME280;12016;51.668;6.874;2022-10-16T00:59:42;100949.66;;;16.02;100.00
23679;BME280;12016;51.668;6.874;2022-10-16T01:05:49;100938.47;;;16.02;100.00
23679;BME280;12016;51.668;6.874;2022-10-16T01:12:15;100940.84;;;16.03;100.00
23679;BME280;12016;51.668;6.874;2022-10-16T01:18:45;100928.81;;;16.10;100.00
23679;BME280;12016;51.668;6.874;2022-10-16T01:24:49;100937.97;;;16.10;100.00
23679;BME280;12016;51.668;6.874;2022-10-16T01:30:53;100941.59;;;16.07;100.00
23679;BME280;12016;51.668;6.874;2022-10-16T01:37:04;100928.94;;;15.96;100.00
23679;BME280;12016;51.668;6.874;2022-10-16T01:43:12;100924.19;;;15.89;100.00
23679;BME280;12016;51.668;6.874;2022-10-16T01:49:17;100935.06;;;15.77;100.00
23679;BME280;12016;51.668;6.874;2022-10-16T01:55:28;100925.97;;;15.69;100.00
23679;BME280;12016;51.668;6.874;2022-10-16T02:01:33;100922.81;;;15.64;100.00
23679;BME280;12016;51.668;6.874;2022-10-16T02:07:36;100942.72;;;15.69;100.00
23679;BME280;12016;51.668;6.874;2022-10-16T02:13:43;100957.03;;;15.75;100.00
23679;BME280;12016;51.668;6.874;2022-10-16T02:19:49;100957.44;;;15.70;100.00
23679;BME280;12016;51.668;6.874;2022-10-16T02:25:54;100955.47;;;15.67;100.00
23679;BME280;12016;51.668;6.874;2022-10-16T02:32:01;100961.06;;;15.67;100.00
23679;BME280;12016;51.668;6.874;2022-10-16T02:38:05;100967.09;;;15.62;100.00
23679;BME280;12016;51.668;6.874;2022-10-16T02:44:07;100962.75;;;15.54;100.00
23679;BME280;12016;51.668;6.874;2022-10-16T02:50:09;100959.53;;;15.59;100.00
23679;BME280;12016;51.668;6.874;2022-10-16T02:56:11;100950.84;;;15.50;100.00
23679;BME280;12016;51.668;6.874;2022-10-16T03:02:13;100960.38;;;15.49;100.00
23679;BME280;12016;51.668;6.874;2022-10-16T03:08:15;100958.03;;;15.44;100.00
23679;BME280;12016;51.668;6.874;2022-10-16T03:14:16;100959.66;;;15.31;100.00
23679;BME280;12016;51.668;6.874;2022-10-16T03:20:18;100970.00;;;15.34;100.00
23679;BME280;12016;51.668;6.874;2022-10-16T03:26:20;100964.41;;;15.37;100.00
23679;BME280;12016;51.668;6.874;2022-10-16T03:32:22;100957.66;;;15.38;100.00
23679;BME280;12016;51.668;6.874;2022-10-16T03:38:26;100960.44;;;15.38;100.00
23679;BME280;12016;51.668;6.874;2022-10-16T03:44:28;100958.47;;;15.32;100.00
23679;BME280;12016;51.668;6.874;2022-10-16T03:50:30;100959.66;;;15.31;100.00
23679;BME280;12016;51.668;6.874;2022-10-16T03:56:32;100970.41;;;15.32;100.00
23679;BME280;12016;51.668;6.874;2022-10-16T04:02:34;100980.78;;;15.32;100.00
23679;BME280;12016;51.668;6.874;2022-10-16T04:08:36;100966.84;;;15.32;100.00
23679;BME280;12016;51.668;6.874;2022-10-16T04:14:38;100971.63;;;15.42;100.00
23679;BME280;12016;51.668;6.874;2022-10-16T04:20:40;100978.78;;;15.36;100.00
23679;BME280;12016;51.668;6.874;2022-10-16T04:26:42;101000.25;;;15.53;100.00
23679;BME280;12016;51.668;6.874;2022-10-16T04:32:48;100989.84;;;15.57;100.00
23679;BME280;12016;51.668;6.874;2022-10-16T04:38:50;100992.16;;;15.69;100.00
23679;BME280;12016;51.668;6.874;2022-10-16T04:44:51;101005.72;;;15.67;100.00
23679;BME280;12016;51.668;6.874;2022-10-16T04:50:54;101007.38;;;15.61;100.00
23679;BME280;12016;51.668;6.874;2022-10-16T04:56:56;101006.13;;;15.69;100.00
23679;BME280;12016;51.668;6.874;2022-10-16T05:02:58;101016.47;;;15.72;100.00
23679;BME280;12016;51.668;6.874;2022-10-16T05:09:00;101016.84;;;15.77;100.00
23679;BME280;12016;51.668;6.874;2022-10-16T05:15:03;101018.00;;;15.80;100.00
23679;BME280;12016;51.668;6.874;2022-10-16T05:21:05;101039.16;;;15.81;100.00
23679;BME280;12016;51.668;6.874;2022-10-16T05:27:08;101047.97;;;15.72;100.00
23679;BME280;12016;51.668;6.874;2022-10-16T05:33:09;101062.72;;;15.73;100.00
23679;BME280;12016;51.668;6.874;2022-10-16T05:39:13;101071.09;;;15.73;100.00
23679;BME280;12016;51.668;6.874;2022-10-16T05:45:15;101059.91;;;15.76;100.00
23679;BME280;12016;51.668;6.874;2022-10-16T05:51:17;101053.53;;;15.76;100.00
23679;BME280;12016;51.668;6.874;2022-10-16T05:57:19;101057.53;;;15.75;100.00
23679;BME280;12016;51.668;6.874;2022-10-16T06:03:21;101083.47;;;15.72;100.00
23679;BME280;12016;51.668;6.874;2022-10-16T06:09:23;101092.22;;;15.77;100.00
23679;BME280;12016;51.668;6.874;2022-10-16T06:15:25;101084.19;;;15.86;100.00
23679;BME280;12016;51.668;6.874;2022-10-16T06:21:28;101092.97;;;15.85;100.00
23679;BME280;12016;51.668;6.874;2022-10-16T06:27:31;101107.25;;;15.97;100.00
23679;BME280;12016;51.668;6.874;2022-10-16T06:33:33;101115.63;;;16.01;100.00
23679;BME280;12016;51.668;6.874;2022-10-16T06:39:35;101125.53;;;16.09;100.00
23679;BME280;12016;51.668;6.874;2022-10-16T06:45:37;101125.19;;;16.03;100.00
23679;BME280;12016;51.668;6.874;2022-10-16T06:51:39;101143.56;;;15.97;100.00
23679;BME280;12016;51.668;6.874;2022-10-16T06:57:43;101159.97;;;15.92;100.00
23679;BME280;12016;51.668;6.874;2022-10-16T07:03:46;101173.84;;;16.02;100.00
23679;BME280;12016;51.668;6.874;2022-10-16T07:09:47;101195.38;;;16.12;100.00
23679;BME280;12016;51.668;6.874;2022-10-16T07:15:49;101217.31;;;16.14;100.00
23679;BME280;12016;51.668;6.874;2022-10-16T07:21:51;101219.34;;;16.10;100.00
23679;BME280;12016;51.668;6.874;2022-10-16T07:27:53;101223.28;;;16.16;100.00
23679;BME280;12016;51.668;6.874;2022-10-16T07:33:59;101226.75;;;16.41;100.00
23679;BME280;12016;51.668;6.874;2022-10-16T07:40:01;101234.66;;;16.60;100.00
23679;BME280;12016;51.668;6.874;2022-10-16T07:46:03;101237.44;;;16.60;100.00
23679;BME280;12016;51.668;6.874;2022-10-16T07:52:05;101249.75;;;16.73;100.00
23679;BME280;12016;51.668;6.874;2022-10-16T07:58:07;101262.16;;;16.69;100.00
23679;BME280;12016;51.668;6.874;2022-10-16T08:04:10;101273.97;;;16.90;100.00
23679;BME280;12016;51.668;6.874;2022-10-16T08:10:16;101276.34;;;16.95;100.00
23679;BME280;12016;51.668;6.874;2022-10-16T08:16:19;101283.44;;;17.10;100.00
23679;BME280;12016;51.668;6.874;2022-10-16T08:22:22;101284.19;;;17.18;100.00
23679;BME280;12016;51.668;6.874;2022-10-16T08:28:24;101301.66;;;17.32;100.00
23679;BME280;12016;51.668;6.874;2022-10-16T08:34:27;101304.06;;;17.34;100.00
23679;BME280;12016;51.668;6.874;2022-10-16T08:40:30;101307.13;;;17.50;100.00
23679;BME280;12016;51.668;6.874;2022-10-16T08:46:39;101312.63;;;17.60;100.00
23679;BME280;12016;51.668;6.874;2022-10-16T08:52:47;101312.59;;;17.64;100.00
23679;BME280;12016;51.668;6.874;2022-10-16T08:58:55;101314.78;;;17.87;100.00
23679;BME280;12016;51.668;6.874;2022-10-16T09:17:53;101339.91;;;18.31;100.00
23679;BME280;12016;51.668;6.874;2022-10-16T09:24:00;101338.44;;;18.56;100.00
23679;BME280;12016;51.668;6.874;2022-10-16T09:30:17;101328.69;;;18.94;100.00
23679;BME280;12016;51.668;6.874;2022-10-16T09:36:20;101332.53;;;19.04;100.00
23679;BME280;12016;51.668;6.874;2022-10-16T09:42:30;101323.31;;;19.07;100.00
23679;BME280;12016;51.668;6.874;2022-10-16T09:48:43;101329.59;;;19.41;100.00
23679;BME280;12016;51.668;6.874;2022-10-16T09:54:54;101328.69;;;20.13;100.00
23679;BME280;12016;51.668;6.874;2022-10-16T10:00:57;101314.84;;;21.49;100.00
23679;BME280;12016;51.668;6.874;2022-10-16T10:06:59;101293.28;;;27.02;100.00
23679;BME280;12016;51.668;6.874;2022-10-16T10:13:01;101297.50;;;28.77;87.32
23679;BME280;12016;51.668;6.874;2022-10-16T10:19:03;101289.59;;;30.10;80.58
23679;BME280;12016;51.668;6.874;2022-10-16T10:37:44;101317.75;;;34.90;54.88
23679;BME280;12016;51.668;6.874;2022-10-16T10:50:30;101318.59;;;33.76;54.97
23679;BME280;12016;51.668;6.874;2022-10-16T10:56:47;101307.09;;;35.63;52.06
23679;BME280;12016;51.668;6.874;2022-10-16T11:03:21;101318.88;;;33.67;54.51
23679;BME280;12016;51.668;6.874;2022-10-16T11:09:42;101318.00;;;32.12;61.75
23679;BME280;12016;51.668;6.874;2022-10-16T11:15:47;101330.41;;;32.78;61.11
23679;BME280;12016;51.668;6.874;2022-10-16T11:22:10;101340.19;;;30.24;66.76
23679;BME280;12016;51.668;6.874;2022-10-16T11:28:33;101330.75;;;31.21;66.71
23679;BME280;12016;51.668;6.874;2022-10-16T11:34:50;101351.72;;;30.15;67.71
23679;BME280;12016;51.668;6.874;2022-10-16T11:40:59;101346.19;;;30.26;72.31
23679;BME280;12016;51.668;6.874;2022-10-16T11:47:12;101328.94;;;34.58;52.74
23679;BME280;12016;51.668;6.874;2022-10-16T12:00:07;101334.53;;;37.88;42.19
23679;BME280;12016;51.668;6.874;2022-10-16T12:12:28;101346.06;;;38.28;42.49
23679;BME280;12016;51.668;6.874;2022-10-16T12:18:40;101362.56;;;34.28;50.63
23679;BME280;12016;51.668;6.874;2022-10-16T12:24:50;101371.09;;;32.66;57.09
23679;BME280;12016;51.668;6.874;2022-10-16T12:31:05;101364.53;;;31.90;59.24
23679;BME280;12016;51.668;6.874;2022-10-16T12:37:26;101374.28;;;30.28;63.07
23679;BME280;12016;51.668;6.874;2022-10-16T12:43:42;101369.97;;;29.98;68.18
23679;BME280;12016;51.668;6.874;2022-10-16T12:49:50;101377.81;;;27.99;71.73
23679;BME280;12016;51.668;6.874;2022-10-16T12:55:59;101377.50;;;26.90;78.75
23679;BME280;12016;51.668;6.874;2022-10-16T13:15:15;101380.06;;;26.25;81.75
23679;BME280;12016;51.668;6.874;2022-10-16T13:27:54;101396.88;;;24.48;97.06
23679;BME280;12016;51.668;6.874;2022-10-16T13:33:58;101410.50;;;24.62;97.85
23679;BME280;12016;51.668;6.874;2022-10-16T13:40:19;101410.94;;;24.73;98.24
23679;BME280;12016;51.668;6.874;2022-10-16T13:46:23;101404.16;;;23.90;100.00
23679;BME280;12016;51.668;6.874;2022-10-16T13:52:25;101419.91;;;23.66;100.00
23679;BME280;12016;51.668;6.874;2022-10-16T13:58:28;101408.94;;;24.27;100.00
23679;BME280;12016;51.668;6.874;2022-10-16T14:04:32;101408.25;;;24.01;100.00
23679;BME280;12016;51.668;6.874;2022-10-16T14:10:34;101406.72;;;24.22;100.00
23679;BME280;12016;51.668;6.874;2022-10-16T14:16:40;101419.44;;;24.73;100.00
23679;BME280;12016;51.668;6.874;2022-10-16T14:22:43;101435.06;;;23.72;100.00
23679;BME280;12016;51.668;6.874;2022-10-16T14:28:46;101429.91;;;23.04;100.00
23679;BME280;12016;51.668;6.874;2022-10-16T14:34:53;101423.28;;;23.23;100.00
23679;BME280;12016;51.668;6.874;2022-10-16T14:40:57;101408.63;;;23.41;100.00
23679;BME280;12016;51.668;6.874;2022-10-16T14:47:09;101410.88;;;23.46;100.00
23679;BME280;12016;51.668;6.874;2022-10-16T14:53:14;101417.66;;;23.36;100.00
23679;BME280;12016;51.668;6.874;2022-10-16T14:59:19;101434.50;;;23.39;100.00
23679;BME280;12016;51.668;6.874;2022-10-16T15:05:26;101427.72;;;22.96;100.00
23679;BME280;12016;51.668;6.874;2022-10-16T15:11:28;101412.75;;;23.11;100.00
23679;BME280;12016;51.668;6.874;2022-10-16T15:17:30;101423.91;;;23.02;100.00
23679;BME280;12016;51.668;6.874;2022-10-16T15:23:33;101417.31;;;22.93;100.00
23679;BME280;12016;51.668;6.874;2022-10-16T15:29:35;101418.22;;;22.90;100.00
23679;BME280;12016;51.668;6.874;2022-10-16T15:35:37;101423.88;;;22.90;100.00
23679;BME280;12016;51.668;6.874;2022-10-16T15:41:39;101413.91;;;22.72;100.00
23679;BME280;12016;51.668;6.874;2022-10-16T15:47:41;101412.72;;;22.57;100.00
23679;BME280;12016;51.668;6.874;2022-10-16T15:53:44;101399.41;;;22.42;100.00
23679;BME280;12016;51.668;6.874;2022-10-16T15:59:48;101400.06;;;22.33;100.00
23679;BME280;12016;51.668;6.874;2022-10-16T16:05:50;101407.50;;;22.11;100.00
23679;BME280;12016;51.668;6.874;2022-10-16T16:11:52;101395.19;;;21.89;100.00
23679;BME280;12016;51.668;6.874;2022-10-16T16:17:54;101410.00;;;21.77;100.00
23679;BME280;12016;51.668;6.874;2022-10-16T16:23:56;101414.34;;;21.62;100.00
23679;BME280;12016;51.668;6.874;2022-10-16T16:29:57;101422.00;;;21.45;100.00
23679;BME280;12016;51.668;6.874;2022-10-16T16:36:01;101419.09;;;21.33;100.00
23679;BME280;12016;51.668;6.874;2022-10-16T16:42:03;101422.31;;;21.15;100.00
23679;BME280;12016;51.668;6.874;2022-10-16T16:48:07;101438.28;;;21.02;100.00
23679;BME280;12016;51.668;6.874;2022-10-16T16:54:10;101437.31;;;20.89;100.00
23679;BME280;12016;51.668;6.874;2022-10-16T17:00:13;101440.34;;;20.79;100.00
23679;BME280;12016;51.668;6.874;2022-10-16T17:06:15;101455.16;;;20.63;100.00
23679;BME280;12016;51.668;6.874;2022-10-16T17:12:19;101453.81;;;20.48;100.00
23679;BME280;12016;51.668;6.874;2022-10-16T17:18:22;101462.81;;;20.40;100.00
23679;BME280;12016;51.668;6.874;2022-10-16T17:24:24;101487.41;;;20.36;100.00
23679;BME280;12016;51.668;6.874;2022-10-16T17:30:25;101495.97;;;20.29;100.00
23679;BME280;12016;51.668;6.874;2022-10-16T17:36:30;101498.91;;;20.21;100.00
23679;BME280;12016;51.668;6.874;2022-10-16T17:42:33;101485.81;;;20.11;100.00
23679;BME280;12016;51.668;6.874;2022-10-16T17:48:43;101489.16;;;20.03;100.00
23679;BME280;12016;51.668;6.874;2022-10-16T17:54:49;101484.44;;;19.96;100.00
23679;BME280;12016;51.668;6.874;2022-10-16T18:00:51;101488.53;;;19.92;100.00
23679;BME280;12016;51.668;6.874;2022-10-16T18:06:57;101494.69;;;19.83;100.00
23679;BME280;12016;51.668;6.874;2022-10-16T18:13:05;101471.44;;;19.79;100.00
23679;BME280;12016;51.668;6.874;2022-10-16T18:19:09;101479.88;;;19.79;100.00
23679;BME280;12016;51.668;6.874;2022-10-16T18:25:11;101475.16;;;19.73;100.00
23679;BME280;12016;51.668;6.874;2022-10-16T18:31:15;101475.22;;;19.69;100.00
23679;BME280;12016;51.668;6.874;2022-10-16T18:37:18;101474.00;;;19.70;100.00
23679;BME280;12016;51.668;6.874;2022-10-16T18:43:20;101481.63;;;19.70;100.00
23679;BME280;12016;51.668;6.874;2022-10-16T18:49:22;101487.25;;;19.70;100.00
23679;BME280;12016;51.668;6.874;2022-10-16T18:55:25;101500.88;;;19.71;100.00
23679;BME280;12016;51.668;6.874;2022-10-16T19:01:34;101501.34;;;19.66;100.00
23679;BME280;12016;51.668;6.874;2022-10-16T19:07:36;101502.59;;;19.65;100.00
23679;BME280;12016;51.668;6.874;2022-10-16T19:13:38;101517.09;;;19.60;100.00
23679;BME280;12016;51.668;6.874;2022-10-16T19:19:40;101564.72;;;19.41;100.00
23679;BME280;12016;51.668;6.874;2022-10-16T19:25:41;101587.63;;;19.39;100.00
23679;BME280;12016;51.668;6.874;2022-10-16T19:31:43;101587.94;;;19.45;100.00
23679;BME280;12016;51.668;6.874;2022-10-16T19:37:49;101571.38;;;19.20;100.00
23679;BME280;12016;51.668;6.874;2022-10-16T19:43:51;101586.53;;;19.26;100.00
23679;BME280;12016;51.668;6.874;2022-10-16T19:49:53;101586.56;;;19.23;100.00
23679;BME280;12016;51.668;6.874;2022-10-16T19:55:56;101576.19;;;19.20;100.00
23679;BME280;12016;51.668;6.874;2022-10-16T20:01:57;101590.28;;;19.13;100.00
23679;BME280;12016;51.668;6.874;2022-10-16T20:07:59;101604.78;;;19.08;100.00
23679;BME280;12016;51.668;6.874;2022-10-16T20:14:02;101586.31;;;19.10;100.00
23679;BME280;12016;51.668;6.874;2022-10-16T20:20:04;101589.97;;;19.07;100.00
23679;BME280;12016;51.668;6.874;2022-10-16T20:26:07;101581.13;;;19.09;100.00
23679;BME280;12016;51.668;6.874;2022-10-16T20:32:09;101572.34;;;19.03;100.00
23679;BME280;12016;51.668;6.874;2022-10-16T20:38:11;101571.56;;;19.03;100.00
23679;BME280;12016;51.668;6.874;2022-10-16T20:44:15;101570.84;;;18.95;100.00
23679;BME280;12016;51.668;6.874;2022-10-16T20:50:16;101563.66;;;18.94;100.00
23679;BME280;12016;51.668;6.874;2022-10-16T20:56:18;101581.28;;;18.91;100.00
23679;BME280;12016;51.668;6.874;2022-10-16T21:02:21;101575.66;;;18.94;100.00
23679;BME280;12016;51.668;6.874;2022-10-16T21:08:23;101582.09;;;18.91;100.00
23679;BME280;12016;51.668;6.874;2022-10-16T21:14:25;101577.28;;;18.92;100.00
23679;BME280;12016;51.668;6.874;2022-10-16T21:20:27;101584.91;;;18.91;100.00
23679;BME280;12016;51.668;6.874;2022-10-16T21:26:30;101572.53;;;18.89;100.00
23679;BME280;12016;51.668;6.874;2022-10-16T21:32:39;101568.59;;;18.79;100.00
23679;BME280;12016;51.668;6.874;2022-10-16T21:38:41;101561.44;;;18.71;100.00
23679;BME280;12016;51.668;6.874;2022-10-16T21:44:44;101555.94;;;18.64;100.00
23679;BME280;12016;51.668;6.874;2022-10-16T21:50:47;101548.03;;;18.52;100.00
23679;BME280;12016;51.668;6.874;2022-10-16T21:56:49;101545.25;;;18.49;100.00
23679;BME280;12016;51.668;6.874;2022-10-16T22:02:53;101561.75;;;18.40;100.00
23679;BME280;12016;51.668;6.874;2022-10-16T22:08:59;101549.75;;;18.39;100.00
23679;BME280;12016;51.668;6.874;2022-10-16T22:15:01;101557.41;;;18.32;100.00
23679;BME280;12016;51.668;6.874;2022-10-16T22:21:08;101571.44;;;18.28;100.00
23679;BME280;12016;51.668;6.874;2022-10-16T22:27:10;101553.09;;;18.20;100.00
23679;BME280;12016;51.668;6.874;2022-10-16T22:33:13;101551.53;;;18.16;100.00
23679;BME280;12016;51.668;6.874;2022-10-16T22:39:16;101550.31;;;18.17;100.00
23679;BME280;12016;51.668;6.874;2022-10-16T22:45:18;101556.34;;;18.12;100.00
23679;BME280;12016;51.668;6.874;2022-10-16T22:51:24;101548.34;;;18.10;100.00
23679;BME280;12016;51.668;6.874;2022-10-16T22:57:29;101545.56;;;18.07;100.00
23679;BME280;12016;51.668;6.874;2022-10-16T23:03:32;101557.59;;;18.04;100.00
23679;BME280;12016;51.668;6.874;2022-10-16T23:09:34;101553.59;;;18.01;100.00
23679;BME280;12016;51.668;6.874;2022-10-16T23:15:42;101564.44;;;18.03;100.00
23679;BME280;12016;51.668;6.874;2022-10-16T23:21:45;101559.19;;;18.05;100.00
23679;BME280;12016;51.668;6.874;2022-10-16T23:27:47;101572.78;;;18.10;100.00
23679;BME280;12016;51.668;6.874;2022-10-16T23:33:57;101570.75;;;18.14;100.00
23679;BME280;12016;51.668;6.874;2022-10-16T23:40:00;101559.94;;;18.16;100.00
23679;BME280;12016;51.668;6.874;2022-10-16T23:46:02;101557.94;;;18.13;100.00
23679;BME280;12016;51.668;6.874;2022-10-16T23:52:04;101566.78;;;18.08;100.00
23679;BME280;12016;51.668;6.874;2022-10-16T23:58:08;101552.44;;;17.99;100.00
